Dallas, Texas
Traffic Map
Current Weather Conditions
Dallas, Texas
Overcast Light Rain
Overcast
47°
Feels Like: 42°
Wind Chill: 42° Ceiling: 900
Heat Index: 47° Visibility: 5mi
Dew Point: 46° Wind: 12mph
Humidity: 97% Direction: 10° (N)
Pressure: 30.27in Gusts: 0mph
Raw Report DataKDAL 161553Z 01010KT 5SM -RA BR BKN009 OVC028 08/08 A3027 RMK AO2 SLP251 P0006 T00830078 $
Traffic Incident Summary
Active as of:
Severity:
Category:
InformationThere was an issue retrieving the traffic information for this location. Please try a different location or try again shortly.
Advertisements